Time;durP1;ratioP1;P1;durP2;ratioP2;P2;SDS_P1;SDS_P2;PMS_P1;PMS_P2;Temp;Humidity;BMP_temperature;BMP_pressure;BME280_temperature;BME280_humidity;BME280_pressure;Samples;Min_cycle;Max_cycle;Signal;HPM_P1;HPM_P2
2021/09/23 00:01:16;;;;;;;3.83;2.80;;;;;;;;;;5011301;28;20049;-83
2021/09/23 00:06:32;;;;;;;3.47;2.72;;;;;;;;;;4974235;28;20038;-83
2021/09/23 00:08:58;;;;;;;4.13;3.00;;;;;;;;;;5011283;28;20056;-84
2021/09/23 00:11:24;;;;;;;4.72;3.15;;;;;;;;;;5011476;28;20032;-81
2021/09/23 00:13:50;;;;;;;5.55;3.45;;;;;;;;;;5010843;28;20022;-82
2021/09/23 00:16:19;;;;;;;5.03;3.22;;;;;;;;;;5011296;28;20120;-86
2021/09/23 00:18:45;;;;;;;3.53;2.65;;;;;;;;;;5010915;28;20072;-85
2021/09/23 00:21:11;;;;;;;3.53;2.60;;;;;;;;;;5011321;28;20024;-83
2021/09/23 00:23:37;;;;;;;4.25;3.03;;;;;;;;;;4993317;28;20444;-87
2021/09/23 00:26:03;;;;;;;5.38;2.83;;;;;;;;;;5010582;28;20065;-82
2021/09/23 00:28:29;;;;;;;3.03;2.45;;;;;;;;;;5011074;28;20469;-82
2021/09/23 00:30:55;;;;;;;5.07;2.85;;;;;;;;;;5010995;28;20553;-83
2021/09/23 00:33:21;;;;;;;3.83;2.97;;;;;;;;;;5011078;28;20101;-84
2021/09/23 00:35:47;;;;;;;5.70;3.10;;;;;;;;;;5010723;28;20056;-84
2021/09/23 00:38:13;;;;;;;4.32;3.42;;;;;;;;;;5011966;28;20025;-81
2021/09/23 00:40:39;;;;;;;4.05;2.80;;;;;;;;;;5014239;28;20025;-84
2021/09/23 00:43:06;;;;;;;4.15;2.70;;;;;;;;;;5014876;28;20097;-83
2021/09/23 00:45:32;;;;;;;5.03;2.63;;;;;;;;;;4997005;28;20038;-81
2021/09/23 00:47:58;;;;;;;5.30;3.40;;;;;;;;;;5014783;28;20124;-81
2021/09/23 00:50:24;;;;;;;4.97;3.30;;;;;;;;;;5014740;28;20428;-84
2021/09/23 00:52:50;;;;;;;4.55;2.65;;;;;;;;;;5014270;28;20596;-81
2021/09/23 00:55:18;;;;;;;4.10;2.97;;;;;;;;;;5013956;28;20044;-85
2021/09/23 00:57:44;;;;;;;3.78;2.60;;;;;;;;;;5014376;28;20029;-85
2021/09/23 01:00:12;;;;;;;3.53;2.80;;;;;;;;;;4996854;28;20490;-82
2021/09/23 01:02:38;;;;;;;5.10;2.97;;;;;;;;;;5014081;28;20018;-88
2021/09/23 01:05:04;;;;;;;5.38;2.90;;;21.60;72.70;;;;;;4996471;28;20144;-81
2021/09/23 01:07:30;;;;;;;4.32;2.97;;;21.30;71.40;;;;;;5014199;28;20548;-86
2021/09/23 01:09:56;;;;;;;4.57;3.00;;;21.30;71.80;;;;;;5014283;28;20034;-86
2021/09/23 01:12:25;;;;;;;5.10;2.80;;;21.30;71.70;;;;;;5014527;28;20021;-85
2021/09/23 01:14:52;;;;;;;4.40;2.40;;;21.30;71.70;;;;;;5013878;28;20073;-83
2021/09/23 01:17:18;;;;;;;4.72;2.97;;;21.20;71.50;;;;;;5014108;28;20030;-81
2021/09/23 01:19:45;;;;;;;4.70;3.03;;;21.20;71.50;;;;;;5013599;28;20034;-84
2021/09/23 01:22:12;;;;;;;5.10;2.63;;;21.20;71.50;;;;;;5014151;28;20041;-82
2021/09/23 01:24:38;;;;;;;4.38;3.35;;;21.20;71.50;;;;;;5013639;28;20117;-84
2021/09/23 01:27:06;;;;;;;3.70;2.55;;;21.20;71.40;;;;;;5014257;28;20025;-85
2021/09/23 01:29:34;;;;;;;4.68;3.10;;;21.20;71.40;;;;;;4996270;28;20022;-82
2021/09/23 01:32:01;;;;;;;3.78;2.85;;;21.20;71.20;;;;;;5013587;28;20038;-84
2021/09/23 01:34:28;;;;;;;4.30;3.15;;;21.20;71.20;;;;;;4995642;28;20022;-80
2021/09/23 01:36:54;;;;;;;4.13;2.85;;;21.20;71.20;;;;;;5014015;28;20033;-82
2021/09/23 01:39:22;;;;;;;4.75;3.05;;;21.20;71.10;;;;;;5013783;28;20057;-82
2021/09/23 01:41:48;;;;;;;3.53;2.67;;;21.20;71.10;;;;;;5013589;28;20041;-82
2021/09/23 01:44:13;;;;;;;4.28;3.00;;;21.20;71.00;;;;;;5013654;28;20033;-82
2021/09/23 01:46:39;;;;;;;4.07;2.88;;;21.10;70.90;;;;;;5013113;28;20112;-81
2021/09/23 01:49:05;;;;;;;5.80;3.13;;;21.20;70.90;;;;;;5013138;28;20018;-83
2021/09/23 01:51:31;;;;;;;4.10;3.10;;;;;;;;;;5012383;28;20032;-83
2021/09/23 01:53:58;;;;;;;3.38;2.83;;;;;;;;;;5013417;28;20093;-82
2021/09/23 01:56:24;;;;;;;3.85;2.72;;;;;;;;;;5013519;28;20409;-82
2021/09/23 01:58:50;;;;;;;3.92;2.83;;;;;;;;;;5012984;28;20037;-84
2021/09/23 02:01:16;;;;;;;4.47;3.10;;;21.20;70.80;;;;;;4995879;28;20025;-85
2021/09/23 02:03:42;;;;;;;5.65;3.10;;;21.10;70.60;;;;;;5012843;28;20029;-85
2021/09/23 02:06:07;;;;;;;4.63;2.90;;;21.10;70.50;;;;;;5013068;28;20037;-83
2021/09/23 02:08:33;;;;;;;3.97;2.60;;;21.10;70.50;;;;;;5013197;28;20065;-84
2021/09/23 02:10:59;;;;;;;3.88;2.50;;;21.10;70.40;;;;;;5013057;28;20493;-83
2021/09/23 02:13:24;;;;;;;6.00;3.00;;;21.10;70.40;;;;;;5013528;28;20026;-83
2021/09/23 02:15:50;;;;;;;5.18;2.95;;;21.10;70.40;;;;;;5012417;28;20064;-84
2021/09/23 02:18:16;;;;;;;5.22;3.88;;;21.10;70.30;;;;;;5012809;28;20143;-83
2021/09/23 02:20:42;;;;;;;4.22;2.58;;;21.10;70.30;;;;;;5012549;28;20375;-82
2021/09/23 02:23:08;;;;;;;3.40;2.78;;;21.00;70.20;;;;;;5012404;28;20406;-86
2021/09/23 02:25:33;;;;;;;5.45;3.30;;;21.00;70.10;;;;;;5012663;28;20034;-82
2021/09/23 02:27:59;;;;;;;7.30;3.25;;;21.00;70.10;;;;;;5012773;28;20539;-86
2021/09/23 02:30:25;;;;;;;4.35;2.92;;;21.00;70.10;;;;;;5012944;28;20021;-83
2021/09/23 02:32:50;;;;;;;4.90;3.60;;;21.00;70.10;;;;;;5012276;28;20028;-83
2021/09/23 02:35:16;;;;;;;3.97;3.03;;;21.00;70.00;;;;;;5012691;28;20029;-83
2021/09/23 02:37:42;;;;;;;4.95;3.25;;;21.00;70.00;;;;;;5012524;28;20104;-85
2021/09/23 02:40:09;;;;;;;4.15;2.80;;;21.00;70.00;;;;;;5012614;28;20040;-84
2021/09/23 02:42:36;;;;;;;4.80;3.15;;;21.00;70.00;;;;;;5012258;28;20033;-84
2021/09/23 02:45:03;;;;;;;4.55;3.17;;;21.00;69.90;;;;;;5012279;28;20092;-82
2021/09/23 02:47:29;;;;;;;4.10;3.50;;;21.00;70.00;;;;;;5012111;28;20018;-83
2021/09/23 02:49:54;;;;;;;5.45;3.22;;;20.90;69.80;;;;;;4994992;28;20033;-86
2021/09/23 02:52:20;;;;;;;4.70;3.03;;;20.90;69.80;;;;;;5012484;28;20026;-82
2021/09/23 02:54:46;;;;;;;4.72;3.17;;;21.00;69.80;;;;;;5012091;28;20083;-83
2021/09/23 02:57:11;;;;;;;4.45;2.90;;;20.90;69.70;;;;;;5012435;28;20038;-84
2021/09/23 02:59:38;;;;;;;6.53;3.75;;;20.90;69.70;;;;;;4994384;28;20057;-82
2021/09/23 03:02:04;;;;;;;4.45;3.33;;;20.90;69.60;;;;;;5011792;28;20026;-82
2021/09/23 03:04:29;;;;;;;6.97;3.30;;;20.90;69.40;;;;;;5011557;28;20033;-85
2021/09/23 03:06:55;;;;;;;5.22;3.50;;;20.90;69.50;;;;;;5012415;28;20029;-81
2021/09/23 03:09:20;;;;;;;5.05;3.17;;;20.90;69.50;;;;;;4994571;28;20058;-84
2021/09/23 03:11:46;;;;;;;4.65;3.20;;;20.80;69.40;;;;;;5011428;28;20062;-82
2021/09/23 03:14:12;;;;;;;4.45;3.13;;;20.80;69.40;;;;;;5011911;28;20044;-82
2021/09/23 03:16:38;;;;;;;4.90;3.47;;;20.80;69.40;;;;;;5011618;28;20533;-81
2021/09/23 03:19:04;;;;;;;6.65;3.15;;;20.90;69.40;;;;;;5011712;28;20125;-82
2021/09/23 03:21:30;;;;;;;4.90;3.05;;;20.90;69.30;;;;;;5011677;28;20105;-81
2021/09/23 03:23:56;;;;;;;4.97;3.00;;;20.90;69.30;;;;;;5012146;28;20508;-83
2021/09/23 03:26:21;;;;;;;5.13;3.08;;;20.80;69.10;;;;;;5011872;28;20049;-81
2021/09/23 03:28:47;;;;;;;4.97;3.22;;;20.80;69.00;;;;;;5011363;28;20033;-81
2021/09/23 03:31:13;;;;;;;5.10;3.35;;;20.90;69.10;;;;;;5011690;28;20032;-82
2021/09/23 03:33:38;;;;;;;5.15;3.35;;;20.80;69.10;;;;;;5011272;28;20022;-82
2021/09/23 03:36:05;;;;;;;4.95;2.60;;;20.80;69.00;;;;;;5011970;28;20030;-81
2021/09/23 03:38:31;;;;;;;4.38;3.42;;;20.80;69.00;;;;;;4993989;28;20030;-84
2021/09/23 03:40:56;;;;;;;4.18;3.05;;;20.80;68.90;;;;;;5011805;28;20529;-83
2021/09/23 03:43:22;;;;;;;5.35;3.35;;;20.80;68.90;;;;;;5012016;28;20026;-85
2021/09/23 03:45:49;;;;;;;4.80;3.40;;;20.80;68.80;;;;;;5011237;28;20116;-85
2021/09/23 03:48:16;;;;;;;3.95;2.97;;;;;;;;;;5011530;28;20028;-85
2021/09/23 03:50:42;;;;;;;6.05;2.90;;;;;;;;;;5011368;28;20026;-84
2021/09/23 03:53:08;;;;;;;4.80;3.33;;;;;;;;;;5011425;28;20028;-85
2021/09/23 03:55:34;;;;;;;5.80;3.60;;;;;;;;;;5011023;28;20030;-85
2021/09/23 03:57:59;;;;;;;4.55;3.05;;;20.80;69.00;;;;;;5011608;28;20033;-86
2021/09/23 04:00:26;;;;;;;7.32;3.55;;;20.70;68.70;;;;;;5011525;28;20034;-87
2021/09/23 04:02:52;;;;;;;4.95;3.25;;;20.70;68.70;;;;;;4993779;28;20099;-86
2021/09/23 04:05:18;;;;;;;4.30;3.20;;;20.70;68.60;;;;;;4993699;28;20041;-86
2021/09/23 04:07:44;;;;;;;5.55;3.25;;;20.70;68.60;;;;;;5011125;28;20120;-85
2021/09/23 04:10:10;;;;;;;6.32;3.22;;;20.70;68.60;;;;;;5011321;28;20025;-84
2021/09/23 04:12:37;;;;;;;5.25;3.28;;;20.70;68.50;;;;;;5010670;28;20030;-86
2021/09/23 04:15:04;;;;;;;5.75;4.20;;;20.70;68.50;;;;;;4997879;28;20033;-84
2021/09/23 04:17:30;;;;;;;5.30;3.55;;;20.70;68.50;;;;;;4997340;28;20029;-87
2021/09/23 04:19:56;;;;;;;5.05;3.38;;;20.70;68.40;;;;;;5015444;28;20026;-88
2021/09/23 04:22:22;;;;;;;5.72;3.50;;;20.70;68.40;;;;;;5015422;28;20398;-85
2021/09/23 04:24:47;;;;;;;4.50;3.47;;;20.70;68.40;;;;;;5014673;28;20058;-85
2021/09/23 04:27:13;;;;;;;5.45;3.38;;;20.60;68.30;;;;;;4997340;28;20029;-84
2021/09/23 04:29:43;;;;;;;4.78;3.50;;;20.70;68.40;;;;;;5014886;28;20401;-86
2021/09/23 04:32:13;;;;;;;4.97;3.13;;;20.70;68.40;;;;;;4997263;28;20120;-82
2021/09/23 04:34:39;;;;;;;4.60;3.33;;;20.60;68.30;;;;;;4996993;28;20030;-83
2021/09/23 04:37:05;;;;;;;3.97;3.10;;;20.60;68.20;;;;;;4997214;28;20025;-85
2021/09/23 04:39:31;;;;;;;3.80;2.83;;;20.60;68.20;;;;;;5014430;28;20072;-81
2021/09/23 04:41:57;;;;;;;4.38;3.38;;;20.60;68.20;;;;;;4997243;28;20026;-82
2021/09/23 04:44:23;;;;;;;5.15;3.45;;;20.60;68.20;;;;;;5015071;28;20030;-87
2021/09/23 04:46:49;;;;;;;5.50;3.45;;;20.60;68.20;;;;;;5014526;28;20025;-87
2021/09/23 04:49:15;;;;;;;6.00;3.33;;;20.60;68.10;;;;;;5014851;28;20045;-85
2021/09/23 04:51:41;;;;;;;5.18;3.67;;;20.60;68.10;;;;;;4996626;28;20032;-84
2021/09/23 04:54:07;;;;;;;4.95;3.85;;;20.60;68.10;;;;;;5014415;28;20048;-81
2021/09/23 04:56:33;;;;;;;5.57;3.58;;;20.60;68.10;;;;;;5014311;28;20038;-80
2021/09/23 04:58:59;;;;;;;4.78;3.20;;;20.50;68.10;;;;;;5014584;28;20045;-81
2021/09/23 05:01:25;;;;;;;4.20;3.03;;;20.50;68.10;;;;;;5014150;28;20493;-80
2021/09/23 05:03:50;;;;;;;5.00;2.92;;;20.50;68.00;;;;;;5014289;28;20076;-81
2021/09/23 05:06:16;;;;;;;4.40;3.22;;;20.50;68.00;;;;;;5014350;28;20419;-81
2021/09/23 05:08:42;;;;;;;4.18;3.10;;;20.50;68.10;;;;;;5013698;28;20022;-80
2021/09/23 05:11:07;;;;;;;4.75;3.58;;;20.50;68.10;;;;;;4996629;28;20088;-81
2021/09/23 05:13:33;;;;;;;5.25;3.45;;;20.50;68.10;;;;;;5014165;28;20053;-82
2021/09/23 05:15:58;;;;;;;2.97;2.55;;;20.50;68.00;;;;;;5014397;28;20030;-80
2021/09/23 05:18:24;;;;;;;4.13;3.10;;;20.50;68.00;;;;;;5014515;28;20484;-80
2021/09/23 05:20:50;;;;;;;4.45;2.70;;;;;;;;;;4996221;28;20030;-82
2021/09/23 05:23:16;;;;;;;4.13;3.15;;;;;;;;;;5013984;28;20022;-81
2021/09/23 05:25:42;;;;;;;3.83;3.03;;;;;;;;;;5013323;28;20033;-83
2021/09/23 05:28:08;;;;;;;3.95;3.17;;;;;;;;;;5013478;28;20033;-80
2021/09/23 05:30:34;;;;;;;4.65;3.25;;;;;;;;;;5012853;28;20037;-82
2021/09/23 05:33:01;;;;;;;4.10;3.20;;;;;;;;;;5013709;28;20105;-81
2021/09/23 05:35:27;;;;;;;5.90;2.95;;;;;;;;;;5014263;28;20064;-81
2021/09/23 05:37:53;;;;;;;4.43;2.75;;;;;;;;;;5014049;28;20026;-80
2021/09/23 05:40:19;;;;;;;4.60;3.00;;;;;;;;;;5013745;28;20030;-81
2021/09/23 05:42:45;;;;;;;5.38;3.65;;;;;;;;;;5012576;28;20030;-81
2021/09/23 05:45:11;;;;;;;4.30;2.90;;;;;;;;;;5012478;28;20041;-85
2021/09/23 05:47:38;;;;;;;3.95;2.92;;;;;;;;;;4994283;28;20041;-86
2021/09/23 05:50:05;;;;;;;6.13;3.38;;;;;;;;;;5013629;28;20047;-84
2021/09/23 05:52:31;;;;;;;4.40;2.95;;;;;;;;;;5013211;28;20026;-83
2021/09/23 05:54:57;;;;;;;4.88;3.00;;;;;;;;;;5010400;28;20023;-84
2021/09/23 05:57:24;;;;;;;4.35;3.33;;;;;;;;;;5009254;28;20037;-84
2021/09/23 05:59:53;;;;;;;7.15;3.50;;;;;;;;;;5010811;28;20386;-85
2021/09/23 06:02:19;;;;;;;4.25;3.33;;;20.50;68.00;;;;;;5012426;28;20034;-82
2021/09/23 06:04:45;;;;;;;5.85;3.70;;;;;;;;;;4990460;28;20034;-88
2021/09/23 06:07:11;;;;;;;7.72;3.72;;;;;;;;;;5012305;28;20034;-85
2021/09/23 06:09:37;;;;;;;4.50;3.45;;;;;;;;;;5011392;28;20079;-82
2021/09/23 06:12:03;;;;;;;6.70;3.85;;;;;;;;;;5012106;28;20508;-85
2021/09/23 06:14:31;;;;;;;7.45;4.28;;;;;;;;;;5012314;28;20030;-83
2021/09/23 06:16:57;;;;;;;6.25;3.72;;;;;;;;;;5012770;28;20075;-83
2021/09/23 06:19:24;;;;;;;5.38;3.72;;;;;;;;;;5012186;28;20167;-85
2021/09/23 06:21:49;;;;;;;6.97;4.80;;;;;;;;;;5012208;28;20026;-83
2021/09/23 06:24:15;;;;;;;8.10;5.25;;;;;;;;;;5012239;28;20405;-83
2021/09/23 06:26:41;;;;;;;10.25;5.60;;;;;;;;;;4992656;28;20034;-81
2021/09/23 06:29:07;;;;;;;8.15;5.47;;;;;;;;;;4993216;28;20386;-80
2021/09/23 06:31:35;;;;;;;6.28;4.85;;;;;;;;;;5006166;28;20030;-79
2021/09/23 06:34:01;;;;;;;7.05;4.75;;;;;;;;;;5012239;28;20029;-80
2021/09/23 06:36:27;;;;;;;8.15;4.65;;;;;;;;;;4996452;28;20510;-80
2021/09/23 06:38:53;;;;;;;8.93;5.15;;;;;;;;;;4993738;28;20034;-81
2021/09/23 06:41:19;;;;;;;6.82;4.88;;;;;;;;;;5004053;28;20556;-80
2021/09/23 06:43:48;;;;;;;8.70;4.85;;;;;;;;;;5005211;28;20030;-82
2021/09/23 06:46:16;;;;;;;7.57;4.80;;;;;;;;;;5005126;28;20138;-81
2021/09/23 06:48:42;;;;;;;8.63;5.95;;;;;;;;;;4993627;28;20109;-83
2021/09/23 06:51:08;;;;;;;8.98;5.88;;;;;;;;;;4993687;28;20129;-82
2021/09/23 06:53:34;;;;;;;10.50;6.15;;;;;;;;;;5011910;28;20030;-81
2021/09/23 06:56:00;;;;;;;9.60;5.75;;;;;;;;;;5011009;28;20037;-82
2021/09/23 06:58:26;;;;;;;9.93;5.93;;;;;;;;;;5011775;28;20485;-79
2021/09/23 07:00:52;;;;;;;12.00;7.20;;;;;;;;;;5012020;28;20030;-83
2021/09/23 07:03:18;;;;;;;16.73;9.35;;;;;;;;;;4994795;28;20025;-83
2021/09/23 07:05:44;;;;;;;14.30;9.68;;;;;;;;;;5010047;28;20046;-82
2021/09/23 07:08:14;;;;;;;13.35;8.35;;;;;;;;;;5011571;28;20029;-82
2021/09/23 07:10:40;;;;;;;16.55;7.72;;;;;;;;;;5011617;28;20033;-82
2021/09/23 07:13:06;;;;;;;10.70;7.05;;;;;;;;;;5012013;28;20105;-82
2021/09/23 07:15:32;;;;;;;10.13;7.05;;;;;;;;;;5011843;28;20026;-83
2021/09/23 07:17:58;;;;;;;9.65;6.53;;;;;;;;;;5012055;28;20367;-82
2021/09/23 07:20:24;;;;;;;11.63;6.80;;;;;;;;;;5012068;28;20112;-82
2021/09/23 07:22:50;;;;;;;11.48;6.40;;;;;;;;;;5011402;28;20495;-83
2021/09/23 07:25:16;;;;;;;9.63;5.97;;;;;;;;;;5011673;28;20127;-83
2021/09/23 07:27:42;;;;;;;10.35;5.82;;;;;;;;;;5011560;28;20133;-83
2021/09/23 07:30:08;;;;;;;8.57;5.28;;;;;;;;;;4994063;28;20477;-82
2021/09/23 07:32:34;;;;;;;8.18;5.85;;;;;;;;;;4993675;28;20036;-82
2021/09/23 07:35:00;;;;;;;9.57;5.55;;;;;;;;;;5011490;28;20022;-83
2021/09/23 07:37:26;;;;;;;10.88;5.32;;;;;;;;;;5011670;28;20030;-82
2021/09/23 07:39:52;;;;;;;11.75;5.60;;;;;;;;;;5011978;28;20029;-82
2021/09/23 07:42:18;;;;;;;8.85;5.55;;;;;;;;;;5011648;28;20068;-83
2021/09/23 07:44:44;;;;;;;7.82;4.68;;;;;;;;;;5011302;28;20050;-83
2021/09/23 07:47:10;;;;;;;8.98;5.20;;;;;;;;;;5011364;28;20029;-82
2021/09/23 07:49:36;;;;;;;9.30;5.30;;;;;;;;;;5011190;28;20077;-82
2021/09/23 07:52:02;;;;;;;7.82;4.97;;;;;;;;;;5011466;28;20040;-83
2021/09/23 07:54:28;;;;;;;10.45;5.00;;;;;;;;;;5011271;28;20067;-83
2021/09/23 07:56:54;;;;;;;7.25;4.53;;;;;;;;;;5011454;28;20046;-82
2021/09/23 07:59:20;;;;;;;9.10;5.05;;;;;;;;;;4993676;28;20025;-82
2021/09/23 08:01:46;;;;;;;8.63;4.75;;;;;;;;;;5011146;28;20922;-82
2021/09/23 08:04:12;;;;;;;7.50;4.75;;;;;;;;;;5011185;28;20026;-83
2021/09/23 08:06:39;;;;;;;7.18;4.65;;;;;;;;;;5010762;28;20188;-83
2021/09/23 08:09:05;;;;;;;8.10;4.88;;;;;;;;;;4993802;28;20022;-83
2021/09/23 08:11:31;;;;;;;6.57;4.10;;;;;;;;;;5010898;28;20067;-82
2021/09/23 08:13:58;;;;;;;6.22;4.10;;;;;;;;;;5011371;28;20026;-83
2021/09/23 08:16:24;;;;;;;7.18;4.97;;;;;;;;;;5011404;28;20033;-83
2021/09/23 08:18:50;;;;;;;6.47;4.35;;;;;;;;;;5010717;28;20023;-83
2021/09/23 08:21:16;;;;;;;5.47;3.95;;;;;;;;;;5011089;28;20032;-83
2021/09/23 08:23:42;;;;;;;6.30;3.55;;;;;;;;;;5011074;28;20022;-83
2021/09/23 08:26:08;;;;;;;6.78;4.38;;;;;;;;;;4993478;28;20485;-83
2021/09/23 08:28:35;;;;;;;6.68;4.60;;;;;;;;;;5011037;28;20025;-83
2021/09/23 08:31:02;;;;;;;7.93;4.75;;;;;;;;;;5011179;28;20029;-83
2021/09/23 08:33:28;;;;;;;6.72;4.40;;;;;;;;;;5010973;28;20030;-83
2021/09/23 08:35:54;;;;;;;6.88;4.70;;;;;;;;;;5011427;28;20409;-83
2021/09/23 08:38:21;;;;;;;6.57;4.30;;;;;;;;;;5011068;28;20029;-83
2021/09/23 08:40:48;;;;;;;5.35;3.83;;;;;;;;;;5010962;28;20120;-83
2021/09/23 08:43:18;;;;;;;6.07;3.72;;;;;;;;;;4993211;28;20486;-83
2021/09/23 08:45:44;;;;;;;7.00;3.63;;;;;;;;;;5010520;28;20045;-82
2021/09/23 08:48:10;;;;;;;7.65;3.53;;;;;;;;;;5010763;28;20096;-83
2021/09/23 08:50:37;;;;;;;5.57;4.00;;;;;;;;;;5010906;28;20080;-83
2021/09/23 08:53:04;;;;;;;4.82;3.30;;;;;;;;;;5011064;28;20512;-82
2021/09/23 08:55:31;;;;;;;6.80;3.47;;;;;;;;;;5010465;28;20029;-83
2021/09/23 08:57:58;;;;;;;5.68;3.58;;;;;;;;;;4993190;28;20049;-83
2021/09/23 09:00:24;;;;;;;5.20;3.63;;;;;;;;;;5013711;28;20547;-83
2021/09/23 09:03:06;;;;;;;5.38;3.50;;;;;;;;;;4996346;28;20025;-83
2021/09/23 09:05:34;;;;;;;6.13;3.67;;;;;;;;;;5014046;28;20425;-83
2021/09/23 09:08:03;;;;;;;5.15;3.40;;;;;;;;;;5014479;28;20060;-83
2021/09/23 09:10:30;;;;;;;6.40;3.13;;;;;;;;;;5013910;28;20018;-83
2021/09/23 09:12:56;;;;;;;6.85;3.38;;;;;;;;;;5014387;28;20084;-83
2021/09/23 09:15:29;;;;;;;6.90;3.67;;;;;;;;;;5014429;28;20381;-83
2021/09/23 09:17:56;;;;;;;5.50;3.85;;;;;;;;;;4997205;28;20042;-83
2021/09/23 09:20:22;;;;;;;4.68;2.92;;;;;;;;;;5014367;28;20076;-83
2021/09/23 09:22:48;;;;;;;5.18;3.67;;;;;;;;;;5013721;28;20056;-83
2021/09/23 09:25:14;;;;;;;5.13;3.20;;;;;;;;;;5013759;28;20041;-83
2021/09/23 09:27:42;;;;;;;4.38;2.90;;;;;;;;;;5013841;28;20481;-83
2021/09/23 09:30:10;;;;;;;5.88;3.28;;;;;;;;;;4996300;28;20433;-82
2021/09/23 09:32:41;;;;;;;5.82;3.33;;;;;;;;;;4996010;28;20053;-83
2021/09/23 09:35:08;;;;;;;6.47;3.33;;;;;;;;;;5014078;28;20477;-83
2021/09/23 09:37:34;;;;;;;3.97;2.60;;;;;;;;;;4996188;28;20037;-83
2021/09/23 09:40:01;;;;;;;4.05;2.90;;;;;;;;;;4996203;28;20095;-83
2021/09/23 09:42:28;;;;;;;4.80;2.72;;;;;;;;;;5013384;28;20030;-83
2021/09/23 09:44:55;;;;;;;3.53;2.53;;;;;;;;;;5013850;28;20061;-83
2021/09/23 09:47:33;;;;;;;5.28;2.80;;;;;;;;;;5013433;28;20034;-83
2021/09/23 09:49:59;;;;;;;3.80;2.70;;;;;;;;;;5013719;28;20097;-83
2021/09/23 09:52:31;;;;;;;4.57;3.13;;;;;;;;;;5013783;28;20067;-83
2021/09/23 09:55:01;;;;;;;4.88;2.30;;;;;;;;;;5013444;28;20022;-83
2021/09/23 09:57:28;;;;;;;3.88;2.35;;;;;;;;;;5012770;28;20034;-83
2021/09/23 09:59:54;;;;;;;6.70;3.65;;;;;;;;;;5013729;28;20029;-83
2021/09/23 10:02:20;;;;;;;4.85;2.67;;;;;;;;;;5013270;28;20084;-83
2021/09/23 10:04:46;;;;;;;4.20;2.30;;;;;;;;;;5013119;28;20033;-83
2021/09/23 10:07:13;;;;;;;3.53;2.13;;;;;;;;;;5013297;28;20034;-83
2021/09/23 10:09:40;;;;;;;4.43;2.80;;;;;;;;;;5012930;28;20076;-83
2021/09/23 10:12:07;;;;;;;4.15;2.42;;;;;;;;;;4994515;28;20030;-83
2021/09/23 10:14:33;;;;;;;3.40;2.25;;;;;;;;;;5012955;28;20396;-83
2021/09/23 10:17:00;;;;;;;3.55;1.92;;;;;;;;;;5013152;28;20096;-83
2021/09/23 10:19:27;;;;;;;4.82;2.25;;;;;;;;;;5013499;28;20493;-83
2021/09/23 10:21:53;;;;;;;5.50;2.40;;;;;;;;;;4995595;28;20032;-83
2021/09/23 10:24:20;;;;;;;4.07;2.30;;;;;;;;;;5012903;28;20033;-83
2021/09/23 10:26:47;;;;;;;3.20;1.85;;;;;;;;;;4995034;28;20041;-83
2021/09/23 10:29:14;;;;;;;5.03;2.08;;;;;;;;;;4995188;28;20058;-83
2021/09/23 10:31:43;;;;;;;3.28;2.22;;;;;;;;;;5012404;28;20034;-83
2021/09/23 10:34:12;;;;;;;3.50;2.25;;;;;;;;;;5012816;28;20022;-82
2021/09/23 10:36:39;;;;;;;3.40;1.85;;;;;;;;;;5012155;28;20512;-83
2021/09/23 10:39:06;;;;;;;2.92;1.70;;;;;;;;;;5012730;28;20026;-83
2021/09/23 10:41:33;;;;;;;3.80;2.03;;;;;;;;;;5012247;28;20620;-83
2021/09/23 10:44:01;;;;;;;4.00;1.75;;;;;;;;;;5012606;28;20022;-83
2021/09/23 10:46:28;;;;;;;5.68;2.38;;;;;;;;;;5012108;28;20501;-83
2021/09/23 10:48:55;;;;;;;2.70;1.63;;;;;;;;;;5012925;28;20101;-83
2021/09/23 10:51:21;;;;;;;3.03;1.98;;;;;;;;;;5012473;28;20030;-83
2021/09/23 10:53:58;;;;;;;3.17;2.08;;;;;;;;;;5012065;28;20026;-83
2021/09/23 10:56:26;;;;;;;4.32;2.22;;;;;;;;;;5012733;28;20042;-83
2021/09/23 10:58:52;;;;;;;1.90;1.50;;;;;;;;;;5012105;28;20112;-83
2021/09/23 11:01:20;;;;;;;3.63;2.10;;;;;;;;;;5012047;28;20445;-83
2021/09/23 11:03:48;;;;;;;3.95;1.63;;;;;;;;;;5011902;28;20030;-83
2021/09/23 11:06:15;;;;;;;2.78;1.85;;;;;;;;;;5012287;28;20042;-83
2021/09/23 11:08:42;;;;;;;5.40;2.55;;;;;;;;;;5012015;28;20022;-83
2021/09/23 11:11:08;;;;;;;3.20;1.60;;;;;;;;;;5012145;28;20053;-83
2021/09/23 11:13:36;;;;;;;2.67;1.50;;;;;;;;;;5011853;28;20101;-83
2021/09/23 11:16:04;;;;;;;4.20;2.10;;;;;;;;;;5012051;28;20022;-83
2021/09/23 11:18:30;;;;;;;2.47;1.70;;;;;;;;;;4994279;28;20033;-83
2021/09/23 11:20:57;;;;;;;1.88;1.58;;;;;;;;;;5012142;28;20057;-83
2021/09/23 11:23:23;;;;;;;2.30;1.60;;;;;;;;;;4994354;28;20026;-83
2021/09/23 11:25:51;;;;;;;2.58;1.75;;;;;;;;;;4993980;28;20034;-83
2021/09/23 11:28:18;;;;;;;2.65;1.70;;;;;;;;;;5011588;28;20030;-83
2021/09/23 11:30:44;;;;;;;4.20;1.90;;;;;;;;;;5011290;28;20463;-83
2021/09/23 11:33:11;;;;;;;2.97;1.60;;;;;;;;;;5012001;28;20026;-83
2021/09/23 11:35:39;;;;;;;2.65;1.50;;;;;;;;;;4993709;28;20073;-83
2021/09/23 11:38:05;;;;;;;3.15;1.55;;;;;;;;;;5011747;28;20164;-83
2021/09/23 11:40:33;;;;;;;3.50;1.65;;;;;;;;;;5011461;28;20028;-83
2021/09/23 11:43:03;;;;;;;4.15;1.83;;;;;;;;;;5011487;28;20105;-83
2021/09/23 11:45:33;;;;;;;3.38;2.00;;;;;;;;;;5011148;28;20038;-83
2021/09/23 11:48:07;;;;;;;3.20;1.50;;;;;;;;;;5011576;28;20493;-83
2021/09/23 11:50:35;;;;;;;2.65;1.60;;;;;;;;;;5011344;28;20022;-83
2021/09/23 11:53:12;;;;;;;2.75;1.42;;;;;;;;;;4993981;28;20022;-83
2021/09/23 11:55:42;;;;;;;2.13;1.20;;;;;;;;;;5010959;28;20057;-84
2021/09/23 11:58:12;;;;;;;2.83;1.70;;;;;;;;;;4993877;28;20030;-83
2021/09/23 12:00:41;;;;;;;1.90;1.30;;;;;;;;;;4993378;28;20030;-83
2021/09/23 12:03:08;;;;;;;3.17;1.63;;;;;;;;;;4993762;28;20393;-82
2021/09/23 12:05:34;;;;;;;3.95;1.80;;;;;;;;;;5010947;28;20042;-83
2021/09/23 12:08:07;;;;;;;2.92;1.45;;;;;;;;;;5011430;28;20018;-83
2021/09/23 12:10:33;;;;;;;3.28;1.50;;;;;;;;;;4993476;28;20363;-83
2021/09/23 12:13:01;;;;;;;3.53;1.85;;;;;;;;;;5011361;28;20105;-83
2021/09/23 12:15:31;;;;;;;3.22;1.42;;;;;;;;;;5011101;28;20022;-83
2021/09/23 12:18:02;;;;;;;2.42;1.38;;;;;;;;;;4993429;28;20049;-83
2021/09/23 12:20:41;;;;;;;4.30;1.98;;;;;;;;;;5010866;28;20019;-82
2021/09/23 12:23:26;;;;;;;2.17;1.20;;;;;;;;;;5011279;28;20037;-83
2021/09/23 12:26:05;;;;;;;2.72;1.27;;;;;;;;;;5011262;28;20030;-83
2021/09/23 12:28:32;;;;;;;3.05;1.48;;;;;;;;;;5010798;28;20030;-83
2021/09/23 12:31:02;;;;;;;3.10;1.50;;;20.40;68.00;;;;;;5010854;28;20022;-83
2021/09/23 12:33:28;;;;;;;2.83;1.25;;;21.70;70.60;;;;;;4993562;28;20420;-83
2021/09/23 12:36:12;;;;;;;2.70;1.45;;;21.70;69.80;;;;;;5015107;28;20036;-83
2021/09/23 12:38:45;;;;;;;3.20;1.10;;;21.80;69.80;;;;;;5014727;28;20068;-83
2021/09/23 12:41:21;;;;;;;2.22;1.33;;;;;;;;;;5014752;28;20029;-83
2021/09/23 12:43:48;;;;;;;2.67;1.40;;;;;;;;;;4996811;28;20393;-83
2021/09/23 12:46:15;;;;;;;1.50;1.13;;;;;;;;;;5014572;28;20390;-83
2021/09/23 12:48:42;;;;;;;4.53;1.50;;;;;;;;;;4996741;28;20053;-83
2021/09/23 12:51:08;;;;;;;2.65;1.67;;;;;;;;;;5014697;28;20025;-83
2021/09/23 12:53:35;;;;;;;2.33;1.20;;;;;;;;;;5014455;28;20105;-83
2021/09/23 12:56:03;;;;;;;2.75;1.55;;;21.80;69.80;;;;;;5014433;28;20371;-83
2021/09/23 12:58:28;;;;;;;2.13;1.17;;;22.10;68.60;;;;;;5014401;28;20018;-83
2021/09/23 13:00:54;;;;;;;2.40;1.42;;;22.10;69.20;;;;;;4997184;28;20026;-83
2021/09/23 13:03:20;;;;;;;2.30;0.98;;;22.10;69.00;;;;;;5014576;28;20481;-83
2021/09/23 13:05:47;;;;;;;1.88;1.25;;;22.20;69.10;;;;;;5014290;28;20034;-83
2021/09/23 13:08:23;;;;;;;2.65;1.15;;;22.20;69.00;;;;;;5014266;28;20034;-83
2021/09/23 13:10:50;;;;;;;3.53;1.30;;;22.20;68.90;;;;;;5014189;28;20044;-83
2021/09/23 13:13:22;;;;;;;2.10;1.00;;;22.30;68.90;;;;;;5014215;28;20026;-83
2021/09/23 13:15:48;;;;;;;2.28;1.05;;;22.30;68.80;;;;;;5013914;28;20029;-83
2021/09/23 13:18:20;;;;;;;2.08;1.30;;;22.30;68.70;;;;;;5014181;28;20033;-83
2021/09/23 13:20:50;;;;;;;2.28;1.20;;;22.40;68.60;;;;;;5013990;28;20022;-83
2021/09/23 13:23:30;;;;;;;2.72;1.30;;;22.40;68.60;;;;;;5014126;28;20030;-83
2021/09/23 13:26:05;;;;;;;1.63;1.13;;;22.40;68.50;;;;;;5014432;28;20041;-83
2021/09/23 13:28:37;;;;;;;3.88;2.35;;;22.40;68.60;;;;;;5013950;28;20050;-83
2021/09/23 13:31:06;;;;;;;2.00;1.02;;;22.40;68.60;;;;;;5013676;28;20446;-83
2021/09/23 13:33:32;;;;;;;2.17;1.20;;;22.50;68.60;;;;;;5013743;28;20450;-83
2021/09/23 13:36:00;;;;;;;2.20;1.40;;;22.50;68.60;;;;;;5013899;28;20022;-83
2021/09/23 13:38:27;;;;;;;2.10;1.33;;;22.50;68.60;;;;;;5014248;28;20072;-83
2021/09/23 13:40:53;;;;;;;2.53;1.17;;;22.50;68.40;;;;;;5014136;28;20092;-83
2021/09/23 13:43:19;;;;;;;3.42;1.05;;;22.50;68.40;;;;;;5013839;28;20034;-83
2021/09/23 13:45:46;;;;;;;3.40;1.10;;;22.50;68.60;;;;;;5013163;28;20044;-83
2021/09/23 13:48:12;;;;;;;1.65;1.00;;;22.60;68.50;;;;;;5013867;28;20022;-83
2021/09/23 13:50:39;;;;;;;2.08;1.20;;;22.60;68.40;;;;;;5013425;28;20022;-83
2021/09/23 13:53:05;;;;;;;2.33;1.10;;;22.60;68.40;;;;;;4995859;28;20030;-83
2021/09/23 13:55:31;;;;;;;1.92;1.08;;;22.60;68.60;;;;;;5013207;28;20097;-83